sensor_id;sensor_type;location;lat;lon;timestamp;P1;durP1;ratioP1;P2;durP2;ratioP2
16735;SDS011;17990;49.548;9.730;2023-03-03T00:01:16;20.47;;;11.20;;
16735;SDS011;17990;49.548;9.730;2023-03-03T00:03:43;23.63;;;10.87;;
16735;SDS011;17990;49.548;9.730;2023-03-03T00:06:11;20.40;;;10.87;;
16735;SDS011;17990;49.548;9.730;2023-03-03T00:08:39;20.40;;;11.00;;
16735;SDS011;17990;49.548;9.730;2023-03-03T00:11:08;21.80;;;11.70;;
16735;SDS011;17990;49.548;9.730;2023-03-03T00:13:41;24.07;;;12.93;;
16735;SDS011;17990;49.548;9.730;2023-03-03T00:16:15;69.60;;;44.13;;
16735;SDS011;17990;49.548;9.730;2023-03-03T00:18:46;65.07;;;44.37;;
16735;SDS011;17990;49.548;9.730;2023-03-03T00:21:26;61.13;;;40.27;;
16735;SDS011;17990;49.548;9.730;2023-03-03T00:23:58;54.30;;;37.83;;
16735;SDS011;17990;49.548;9.730;2023-03-03T00:26:47;56.37;;;35.37;;
16735;SDS011;17990;49.548;9.730;2023-03-03T00:29:23;65.50;;;42.87;;
16735;SDS011;17990;49.548;9.730;2023-03-03T00:32:07;68.57;;;44.67;;
16735;SDS011;17990;49.548;9.730;2023-03-03T00:34:44;52.43;;;36.07;;
16735;SDS011;17990;49.548;9.730;2023-03-03T00:37:19;36.77;;;20.93;;
16735;SDS011;17990;49.548;9.730;2023-03-03T00:39:50;29.00;;;15.87;;
16735;SDS011;17990;49.548;9.730;2023-03-03T00:42:19;28.70;;;15.97;;
16735;SDS011;17990;49.548;9.730;2023-03-03T00:44:47;21.50;;;10.33;;
16735;SDS011;17990;49.548;9.730;2023-03-03T00:47:25;21.97;;;11.53;;
16735;SDS011;17990;49.548;9.730;2023-03-03T00:49:55;20.57;;;11.27;;
16735;SDS011;17990;49.548;9.730;2023-03-03T00:52:50;20.63;;;11.40;;
16735;SDS011;17990;49.548;9.730;2023-03-03T00:55:26;21.07;;;11.20;;
16735;SDS011;17990;49.548;9.730;2023-03-03T00:57:55;21.77;;;11.30;;
16735;SDS011;17990;49.548;9.730;2023-03-03T01:00:22;20.43;;;11.10;;
16735;SDS011;17990;49.548;9.730;2023-03-03T01:02:49;20.57;;;11.23;;
16735;SDS011;17990;49.548;9.730;2023-03-03T01:05:17;23.33;;;11.53;;
16735;SDS011;17990;49.548;9.730;2023-03-03T01:07:44;21.90;;;11.70;;
16735;SDS011;17990;49.548;9.730;2023-03-03T01:10:12;22.57;;;11.80;;
16735;SDS011;17990;49.548;9.730;2023-03-03T01:12:39;28.70;;;14.13;;
16735;SDS011;17990;49.548;9.730;2023-03-03T01:15:09;27.67;;;15.43;;
16735;SDS011;17990;49.548;9.730;2023-03-03T01:17:36;33.00;;;17.87;;
16735;SDS011;17990;49.548;9.730;2023-03-03T01:20:05;29.17;;;16.80;;
16735;SDS011;17990;49.548;9.730;2023-03-03T01:22:33;36.43;;;17.77;;
16735;SDS011;17990;49.548;9.730;2023-03-03T01:25:00;30.37;;;17.30;;
16735;SDS011;17990;49.548;9.730;2023-03-03T01:27:28;25.20;;;13.57;;
16735;SDS011;17990;49.548;9.730;2023-03-03T01:29:55;22.27;;;11.10;;
16735;SDS011;17990;49.548;9.730;2023-03-03T01:32:24;20.70;;;11.03;;
16735;SDS011;17990;49.548;9.730;2023-03-03T01:34:52;27.37;;;13.50;;
16735;SDS011;17990;49.548;9.730;2023-03-03T01:37:19;26.73;;;11.67;;
16735;SDS011;17990;49.548;9.730;2023-03-03T01:39:47;22.27;;;11.60;;
16735;SDS011;17990;49.548;9.730;2023-03-03T01:42:15;21.83;;;12.10;;
16735;SDS011;17990;49.548;9.730;2023-03-03T01:44:42;21.70;;;12.40;;
16735;SDS011;17990;49.548;9.730;2023-03-03T01:47:10;23.73;;;12.73;;
16735;SDS011;17990;49.548;9.730;2023-03-03T01:49:40;22.40;;;11.13;;
16735;SDS011;17990;49.548;9.730;2023-03-03T01:52:12;21.60;;;11.37;;
16735;SDS011;17990;49.548;9.730;2023-03-03T01:54:44;22.67;;;11.33;;
16735;SDS011;17990;49.548;9.730;2023-03-03T01:57:16;19.27;;;10.33;;
16735;SDS011;17990;49.548;9.730;2023-03-03T01:59:47;21.07;;;11.20;;
16735;SDS011;17990;49.548;9.730;2023-03-03T02:02:15;23.33;;;11.60;;
16735;SDS011;17990;49.548;9.730;2023-03-03T02:04:44;23.13;;;11.87;;
16735;SDS011;17990;49.548;9.730;2023-03-03T02:07:11;27.40;;;11.87;;
16735;SDS011;17990;49.548;9.730;2023-03-03T02:09:42;23.57;;;11.53;;
16735;SDS011;17990;49.548;9.730;2023-03-03T02:12:15;23.73;;;11.67;;
16735;SDS011;17990;49.548;9.730;2023-03-03T02:14:44;22.00;;;11.90;;
16735;SDS011;17990;49.548;9.730;2023-03-03T02:17:11;22.40;;;11.47;;
16735;SDS011;17990;49.548;9.730;2023-03-03T02:19:40;20.97;;;10.80;;
16735;SDS011;17990;49.548;9.730;2023-03-03T02:22:12;21.30;;;11.60;;
16735;SDS011;17990;49.548;9.730;2023-03-03T02:24:42;20.03;;;11.00;;
16735;SDS011;17990;49.548;9.730;2023-03-03T02:27:13;22.37;;;11.67;;
16735;SDS011;17990;49.548;9.730;2023-03-03T02:29:40;21.67;;;11.77;;
16735;SDS011;17990;49.548;9.730;2023-03-03T02:32:07;22.37;;;11.57;;
16735;SDS011;17990;49.548;9.730;2023-03-03T02:34:42;23.50;;;12.03;;
16735;SDS011;17990;49.548;9.730;2023-03-03T02:37:11;19.77;;;10.70;;
16735;SDS011;17990;49.548;9.730;2023-03-03T02:39:38;22.03;;;11.87;;
16735;SDS011;17990;49.548;9.730;2023-03-03T02:42:07;22.17;;;12.27;;
16735;SDS011;17990;49.548;9.730;2023-03-03T02:44:38;25.80;;;11.97;;
16735;SDS011;17990;49.548;9.730;2023-03-03T02:47:05;21.53;;;11.73;;
16735;SDS011;17990;49.548;9.730;2023-03-03T02:49:33;18.23;;;10.60;;
16735;SDS011;17990;49.548;9.730;2023-03-03T02:52:01;20.23;;;10.80;;
16735;SDS011;17990;49.548;9.730;2023-03-03T02:54:31;23.63;;;11.83;;
16735;SDS011;17990;49.548;9.730;2023-03-03T02:56:58;23.17;;;11.50;;
16735;SDS011;17990;49.548;9.730;2023-03-03T02:59:25;21.93;;;12.00;;
16735;SDS011;17990;49.548;9.730;2023-03-03T03:01:54;22.03;;;11.00;;
16735;SDS011;17990;49.548;9.730;2023-03-03T03:04:22;27.43;;;12.37;;
16735;SDS011;17990;49.548;9.730;2023-03-03T03:06:51;21.87;;;10.60;;
16735;SDS011;17990;49.548;9.730;2023-03-03T03:09:19;26.00;;;11.67;;
16735;SDS011;17990;49.548;9.730;2023-03-03T03:11:47;20.53;;;11.20;;
16735;SDS011;17990;49.548;9.730;2023-03-03T03:14:14;22.43;;;10.50;;
16735;SDS011;17990;49.548;9.730;2023-03-03T03:16:41;21.40;;;11.33;;
16735;SDS011;17990;49.548;9.730;2023-03-03T03:19:10;20.87;;;11.63;;
16735;SDS011;17990;49.548;9.730;2023-03-03T03:21:37;24.00;;;11.43;;
16735;SDS011;17990;49.548;9.730;2023-03-03T03:24:05;21.87;;;10.93;;
16735;SDS011;17990;49.548;9.730;2023-03-03T03:26:32;24.47;;;10.90;;
16735;SDS011;17990;49.548;9.730;2023-03-03T03:28:59;21.27;;;11.73;;
16735;SDS011;17990;49.548;9.730;2023-03-03T03:31:26;18.60;;;10.53;;
16735;SDS011;17990;49.548;9.730;2023-03-03T03:33:53;21.63;;;11.53;;
16735;SDS011;17990;49.548;9.730;2023-03-03T03:36:22;24.00;;;11.10;;
16735;SDS011;17990;49.548;9.730;2023-03-03T03:38:51;23.77;;;10.63;;
16735;SDS011;17990;49.548;9.730;2023-03-03T03:41:18;25.17;;;11.50;;
16735;SDS011;17990;49.548;9.730;2023-03-03T03:43:45;24.87;;;11.03;;
16735;SDS011;17990;49.548;9.730;2023-03-03T03:46:12;23.73;;;11.20;;
16735;SDS011;17990;49.548;9.730;2023-03-03T03:48:39;22.57;;;11.17;;
16735;SDS011;17990;49.548;9.730;2023-03-03T03:51:07;25.00;;;11.13;;
16735;SDS011;17990;49.548;9.730;2023-03-03T03:53:37;27.43;;;12.13;;
16735;SDS011;17990;49.548;9.730;2023-03-03T03:56:05;24.50;;;12.13;;
16735;SDS011;17990;49.548;9.730;2023-03-03T03:58:32;21.97;;;11.87;;
16735;SDS011;17990;49.548;9.730;2023-03-03T04:01:00;20.80;;;10.47;;
16735;SDS011;17990;49.548;9.730;2023-03-03T04:03:28;24.80;;;11.37;;
16735;SDS011;17990;49.548;9.730;2023-03-03T04:05:55;21.63;;;11.17;;
16735;SDS011;17990;49.548;9.730;2023-03-03T04:08:22;20.33;;;10.83;;
16735;SDS011;17990;49.548;9.730;2023-03-03T04:10:51;19.67;;;10.47;;
16735;SDS011;17990;49.548;9.730;2023-03-03T04:13:18;21.10;;;10.73;;
16735;SDS011;17990;49.548;9.730;2023-03-03T04:15:45;18.43;;;10.80;;
16735;SDS011;17990;49.548;9.730;2023-03-03T04:18:12;21.80;;;11.07;;
16735;SDS011;17990;49.548;9.730;2023-03-03T04:20:40;20.07;;;10.97;;
16735;SDS011;17990;49.548;9.730;2023-03-03T04:23:07;25.63;;;12.23;;
16735;SDS011;17990;49.548;9.730;2023-03-03T04:25:34;35.53;;;15.10;;
16735;SDS011;17990;49.548;9.730;2023-03-03T04:28:03;37.30;;;15.87;;
16735;SDS011;17990;49.548;9.730;2023-03-03T04:30:32;25.33;;;10.57;;
16735;SDS011;17990;49.548;9.730;2023-03-03T04:32:59;23.63;;;12.00;;
16735;SDS011;17990;49.548;9.730;2023-03-03T04:35:26;23.87;;;11.67;;
16735;SDS011;17990;49.548;9.730;2023-03-03T04:37:53;21.70;;;10.83;;
16735;SDS011;17990;49.548;9.730;2023-03-03T04:40:21;23.67;;;11.37;;
16735;SDS011;17990;49.548;9.730;2023-03-03T04:42:48;24.33;;;11.43;;
16735;SDS011;17990;49.548;9.730;2023-03-03T04:45:16;20.43;;;10.97;;
16735;SDS011;17990;49.548;9.730;2023-03-03T04:47:44;20.03;;;11.60;;
16735;SDS011;17990;49.548;9.730;2023-03-03T04:50:11;21.20;;;11.13;;
16735;SDS011;17990;49.548;9.730;2023-03-03T04:52:38;25.00;;;12.00;;
16735;SDS011;17990;49.548;9.730;2023-03-03T04:55:06;20.20;;;11.50;;
16735;SDS011;17990;49.548;9.730;2023-03-03T04:57:34;20.80;;;11.93;;
16735;SDS011;17990;49.548;9.730;2023-03-03T05:00:01;23.87;;;11.67;;
16735;SDS011;17990;49.548;9.730;2023-03-03T05:02:31;31.57;;;11.80;;
16735;SDS011;17990;49.548;9.730;2023-03-03T05:04:59;24.97;;;13.30;;
16735;SDS011;17990;49.548;9.730;2023-03-03T05:07:26;26.93;;;13.03;;
16735;SDS011;17990;49.548;9.730;2023-03-03T05:09:53;27.47;;;14.03;;
16735;SDS011;17990;49.548;9.730;2023-03-03T05:12:20;22.07;;;11.30;;
16735;SDS011;17990;49.548;9.730;2023-03-03T05:14:47;22.07;;;11.43;;
16735;SDS011;17990;49.548;9.730;2023-03-03T05:17:15;25.67;;;11.93;;
16735;SDS011;17990;49.548;9.730;2023-03-03T05:19:43;21.43;;;11.33;;
16735;SDS011;17990;49.548;9.730;2023-03-03T05:22:10;22.47;;;11.27;;
16735;SDS011;17990;49.548;9.730;2023-03-03T05:24:38;25.43;;;11.83;;
16735;SDS011;17990;49.548;9.730;2023-03-03T05:27:06;23.50;;;11.20;;
16735;SDS011;17990;49.548;9.730;2023-03-03T05:29:35;24.90;;;12.07;;
16735;SDS011;17990;49.548;9.730;2023-03-03T05:32:03;24.50;;;11.47;;
16735;SDS011;17990;49.548;9.730;2023-03-03T05:34:30;22.73;;;11.40;;
16735;SDS011;17990;49.548;9.730;2023-03-03T05:36:58;22.57;;;11.87;;
16735;SDS011;17990;49.548;9.730;2023-03-03T05:39:27;23.33;;;11.30;;
16735;SDS011;17990;49.548;9.730;2023-03-03T05:41:54;27.53;;;12.43;;
16735;SDS011;17990;49.548;9.730;2023-03-03T05:44:22;32.23;;;15.37;;
16735;SDS011;17990;49.548;9.730;2023-03-03T05:46:49;54.67;;;23.10;;
16735;SDS011;17990;49.548;9.730;2023-03-03T05:49:16;74.53;;;27.63;;
16735;SDS011;17990;49.548;9.730;2023-03-03T05:51:43;42.37;;;18.83;;
16735;SDS011;17990;49.548;9.730;2023-03-03T05:54:12;36.23;;;16.60;;
16735;SDS011;17990;49.548;9.730;2023-03-03T05:56:39;35.20;;;15.60;;
16735;SDS011;17990;49.548;9.730;2023-03-03T05:59:06;32.80;;;15.20;;
16735;SDS011;17990;49.548;9.730;2023-03-03T06:01:33;35.80;;;16.23;;
16735;SDS011;17990;49.548;9.730;2023-03-03T06:04:01;26.23;;;13.63;;
16735;SDS011;17990;49.548;9.730;2023-03-03T06:06:28;27.90;;;13.77;;
16735;SDS011;17990;49.548;9.730;2023-03-03T06:08:55;29.17;;;13.40;;
16735;SDS011;17990;49.548;9.730;2023-03-03T06:11:24;30.50;;;14.20;;
16735;SDS011;17990;49.548;9.730;2023-03-03T06:13:51;31.70;;;14.03;;
16735;SDS011;17990;49.548;9.730;2023-03-03T06:16:18;32.87;;;14.97;;
16735;SDS011;17990;49.548;9.730;2023-03-03T06:18:45;24.67;;;12.27;;
16735;SDS011;17990;49.548;9.730;2023-03-03T06:21:12;25.80;;;12.83;;
16735;SDS011;17990;49.548;9.730;2023-03-03T06:23:39;23.97;;;13.07;;
16735;SDS011;17990;49.548;9.730;2023-03-03T06:26:07;27.13;;;13.87;;
16735;SDS011;17990;49.548;9.730;2023-03-03T06:28:35;22.23;;;11.50;;
16735;SDS011;17990;49.548;9.730;2023-03-03T06:31:03;22.90;;;12.00;;
16735;SDS011;17990;49.548;9.730;2023-03-03T06:33:30;24.90;;;13.73;;
16735;SDS011;17990;49.548;9.730;2023-03-03T06:35:57;19.47;;;10.90;;
16735;SDS011;17990;49.548;9.730;2023-03-03T06:38:24;27.40;;;11.93;;
16735;SDS011;17990;49.548;9.730;2023-03-03T06:40:52;23.30;;;12.90;;
16735;SDS011;17990;49.548;9.730;2023-03-03T06:43:19;22.67;;;12.67;;
16735;SDS011;17990;49.548;9.730;2023-03-03T06:45:47;26.00;;;14.33;;
16735;SDS011;17990;49.548;9.730;2023-03-03T06:48:14;27.93;;;14.00;;
16735;SDS011;17990;49.548;9.730;2023-03-03T06:50:42;27.90;;;14.03;;
16735;SDS011;17990;49.548;9.730;2023-03-03T06:53:09;26.33;;;12.37;;
16735;SDS011;17990;49.548;9.730;2023-03-03T06:55:38;33.67;;;13.20;;
16735;SDS011;17990;49.548;9.730;2023-03-03T06:58:09;30.60;;;14.73;;
16735;SDS011;17990;49.548;9.730;2023-03-03T07:00:39;21.17;;;12.47;;
16735;SDS011;17990;49.548;9.730;2023-03-03T07:03:11;28.80;;;13.60;;
16735;SDS011;17990;49.548;9.730;2023-03-03T07:05:41;25.87;;;13.40;;
16735;SDS011;17990;49.548;9.730;2023-03-03T07:08:09;25.13;;;13.83;;
16735;SDS011;17990;49.548;9.730;2023-03-03T07:10:40;32.03;;;13.07;;
16735;SDS011;17990;49.548;9.730;2023-03-03T07:13:15;26.37;;;13.70;;
16735;SDS011;17990;49.548;9.730;2023-03-03T07:15:44;20.83;;;11.93;;
16735;SDS011;17990;49.548;9.730;2023-03-03T07:18:20;23.03;;;13.30;;
16735;SDS011;17990;49.548;9.730;2023-03-03T07:20:57;25.07;;;13.43;;
16735;SDS011;17990;49.548;9.730;2023-03-03T07:23:25;26.97;;;12.80;;
16735;SDS011;17990;49.548;9.730;2023-03-03T07:25:54;24.33;;;13.53;;
16735;SDS011;17990;49.548;9.730;2023-03-03T07:28:22;28.40;;;14.20;;
16735;SDS011;17990;49.548;9.730;2023-03-03T07:30:50;30.60;;;14.60;;
16735;SDS011;17990;49.548;9.730;2023-03-03T07:33:22;24.00;;;12.93;;
16735;SDS011;17990;49.548;9.730;2023-03-03T07:35:51;25.00;;;13.50;;
16735;SDS011;17990;49.548;9.730;2023-03-03T07:38:22;25.73;;;12.53;;
16735;SDS011;17990;49.548;9.730;2023-03-03T07:40:55;25.83;;;13.17;;
16735;SDS011;17990;49.548;9.730;2023-03-03T07:43:32;26.10;;;12.03;;
16735;SDS011;17990;49.548;9.730;2023-03-03T07:46:02;24.43;;;12.07;;
16735;SDS011;17990;49.548;9.730;2023-03-03T07:48:48;26.03;;;12.60;;
16735;SDS011;17990;49.548;9.730;2023-03-03T07:51:18;25.13;;;13.63;;
16735;SDS011;17990;49.548;9.730;2023-03-03T07:53:49;23.43;;;13.60;;
16735;SDS011;17990;49.548;9.730;2023-03-03T07:56:19;23.90;;;13.33;;
16735;SDS011;17990;49.548;9.730;2023-03-03T07:58:52;20.47;;;12.17;;
16735;SDS011;17990;49.548;9.730;2023-03-03T08:04:17;24.53;;;12.33;;
16735;SDS011;17990;49.548;9.730;2023-03-03T08:06:47;22.63;;;12.10;;
16735;SDS011;17990;49.548;9.730;2023-03-03T08:15:11;22.27;;;11.73;;
16735;SDS011;17990;49.548;9.730;2023-03-03T08:17:45;22.53;;;10.67;;
16735;SDS011;17990;49.548;9.730;2023-03-03T08:23:09;21.93;;;11.43;;
16735;SDS011;17990;49.548;9.730;2023-03-03T08:25:37;20.80;;;11.57;;
16735;SDS011;17990;49.548;9.730;2023-03-03T08:28:06;25.87;;;10.70;;
16735;SDS011;17990;49.548;9.730;2023-03-03T08:30:33;20.87;;;11.83;;
16735;SDS011;17990;49.548;9.730;2023-03-03T08:33:00;21.70;;;11.53;;
16735;SDS011;17990;49.548;9.730;2023-03-03T08:35:28;22.87;;;12.13;;
16735;SDS011;17990;49.548;9.730;2023-03-03T08:37:56;27.10;;;13.83;;
16735;SDS011;17990;49.548;9.730;2023-03-03T08:40:23;25.33;;;12.70;;
16735;SDS011;17990;49.548;9.730;2023-03-03T08:42:51;27.17;;;15.37;;
16735;SDS011;17990;49.548;9.730;2023-03-03T08:45:19;21.07;;;12.17;;
16735;SDS011;17990;49.548;9.730;2023-03-03T08:47:46;24.83;;;12.53;;
16735;SDS011;17990;49.548;9.730;2023-03-03T08:50:13;20.87;;;12.50;;
16735;SDS011;17990;49.548;9.730;2023-03-03T08:52:41;24.37;;;12.07;;
16735;SDS011;17990;49.548;9.730;2023-03-03T08:55:10;24.00;;;12.27;;
16735;SDS011;17990;49.548;9.730;2023-03-03T08:57:38;24.37;;;13.27;;
16735;SDS011;17990;49.548;9.730;2023-03-03T09:00:06;35.27;;;13.63;;
16735;SDS011;17990;49.548;9.730;2023-03-03T09:02:34;22.70;;;12.63;;
16735;SDS011;17990;49.548;9.730;2023-03-03T09:05:02;29.13;;;13.63;;
16735;SDS011;17990;49.548;9.730;2023-03-03T09:07:29;32.07;;;14.03;;
16735;SDS011;17990;49.548;9.730;2023-03-03T09:09:57;41.30;;;15.73;;
16735;SDS011;17990;49.548;9.730;2023-03-03T09:12:27;35.50;;;15.10;;
16735;SDS011;17990;49.548;9.730;2023-03-03T09:14:56;36.47;;;14.83;;
16735;SDS011;17990;49.548;9.730;2023-03-03T09:17:25;30.43;;;15.97;;
16735;SDS011;17990;49.548;9.730;2023-03-03T09:19:57;29.57;;;15.27;;
16735;SDS011;17990;49.548;9.730;2023-03-03T09:22:27;32.20;;;15.47;;
16735;SDS011;17990;49.548;9.730;2023-03-03T09:24:57;32.87;;;16.50;;
16735;SDS011;17990;49.548;9.730;2023-03-03T09:27:28;30.90;;;16.00;;
16735;SDS011;17990;49.548;9.730;2023-03-03T09:29:56;26.57;;;15.23;;
16735;SDS011;17990;49.548;9.730;2023-03-03T09:32:32;29.13;;;16.50;;
16735;SDS011;17990;49.548;9.730;2023-03-03T09:37:51;33.93;;;16.10;;
16735;SDS011;17990;49.548;9.730;2023-03-03T09:40:27;36.53;;;18.17;;
16735;SDS011;17990;49.548;9.730;2023-03-03T09:43:11;32.87;;;16.97;;
16735;SDS011;17990;49.548;9.730;2023-03-03T09:45:40;44.80;;;19.13;;
16735;SDS011;17990;49.548;9.730;2023-03-03T09:51:19;30.30;;;17.67;;
16735;SDS011;17990;49.548;9.730;2023-03-03T09:54:11;31.97;;;17.03;;
16735;SDS011;17990;49.548;9.730;2023-03-03T09:56:43;30.00;;;16.97;;
16735;SDS011;17990;49.548;9.730;2023-03-03T09:59:19;38.43;;;18.87;;
16735;SDS011;17990;49.548;9.730;2023-03-03T10:01:56;35.47;;;18.53;;
16735;SDS011;17990;49.548;9.730;2023-03-03T10:04:38;32.27;;;18.00;;
16735;SDS011;17990;49.548;9.730;2023-03-03T10:07:28;29.67;;;17.53;;
16735;SDS011;17990;49.548;9.730;2023-03-03T10:10:02;32.90;;;17.43;;
16735;SDS011;17990;49.548;9.730;2023-03-03T10:12:38;31.93;;;17.87;;
16735;SDS011;17990;49.548;9.730;2023-03-03T10:15:19;28.30;;;15.77;;
16735;SDS011;17990;49.548;9.730;2023-03-03T10:17:54;29.97;;;17.30;;
16735;SDS011;17990;49.548;9.730;2023-03-03T10:20:31;33.60;;;17.30;;
16735;SDS011;17990;49.548;9.730;2023-03-03T10:23:06;30.93;;;17.10;;
16735;SDS011;17990;49.548;9.730;2023-03-03T10:25:41;28.67;;;16.83;;
16735;SDS011;17990;49.548;9.730;2023-03-03T10:28:17;30.00;;;17.73;;
16735;SDS011;17990;49.548;9.730;2023-03-03T10:30:56;35.03;;;17.40;;
16735;SDS011;17990;49.548;9.730;2023-03-03T10:33:29;32.30;;;17.40;;
16735;SDS011;17990;49.548;9.730;2023-03-03T10:36:23;29.17;;;17.33;;
16735;SDS011;17990;49.548;9.730;2023-03-03T10:39:01;30.50;;;16.83;;
16735;SDS011;17990;49.548;9.730;2023-03-03T10:41:57;31.03;;;17.40;;
16735;SDS011;17990;49.548;9.730;2023-03-03T10:44:35;28.60;;;16.97;;
16735;SDS011;17990;49.548;9.730;2023-03-03T10:47:23;28.07;;;17.37;;
16735;SDS011;17990;49.548;9.730;2023-03-03T10:49:58;28.27;;;18.13;;
16735;SDS011;17990;49.548;9.730;2023-03-03T10:52:32;31.97;;;18.57;;
16735;SDS011;17990;49.548;9.730;2023-03-03T10:55:16;32.80;;;17.63;;
16735;SDS011;17990;49.548;9.730;2023-03-03T11:00:48;36.97;;;17.90;;
16735;SDS011;17990;49.548;9.730;2023-03-03T11:06:37;30.87;;;17.10;;
16735;SDS011;17990;49.548;9.730;2023-03-03T11:09:10;28.33;;;17.00;;
16735;SDS011;17990;49.548;9.730;2023-03-03T11:11:43;26.23;;;16.30;;
16735;SDS011;17990;49.548;9.730;2023-03-03T11:14:13;27.97;;;16.53;;
16735;SDS011;17990;49.548;9.730;2023-03-03T11:16:45;27.60;;;16.40;;
16735;SDS011;17990;49.548;9.730;2023-03-03T11:19:30;30.93;;;17.33;;
16735;SDS011;17990;49.548;9.730;2023-03-03T11:22:07;29.47;;;17.10;;
16735;SDS011;17990;49.548;9.730;2023-03-03T11:24:43;32.43;;;16.50;;
16735;SDS011;17990;49.548;9.730;2023-03-03T11:27:19;31.17;;;16.43;;
16735;SDS011;17990;49.548;9.730;2023-03-03T11:30:01;27.87;;;16.27;;
16735;SDS011;17990;49.548;9.730;2023-03-03T11:32:45;28.30;;;16.47;;
16735;SDS011;17990;49.548;9.730;2023-03-03T11:35:25;28.93;;;17.47;;
16735;SDS011;17990;49.548;9.730;2023-03-03T11:37:56;27.80;;;16.97;;
16735;SDS011;17990;49.548;9.730;2023-03-03T11:40:29;25.53;;;15.00;;
16735;SDS011;17990;49.548;9.730;2023-03-03T11:43:09;27.63;;;16.43;;
16735;SDS011;17990;49.548;9.730;2023-03-03T11:45:42;28.13;;;16.93;;
16735;SDS011;17990;49.548;9.730;2023-03-03T11:48:13;27.03;;;16.70;;
16735;SDS011;17990;49.548;9.730;2023-03-03T11:50:46;28.13;;;15.60;;
16735;SDS011;17990;49.548;9.730;2023-03-03T11:53:25;27.63;;;16.80;;
16735;SDS011;17990;49.548;9.730;2023-03-03T11:56:01;24.27;;;16.17;;
16735;SDS011;17990;49.548;9.730;2023-03-03T11:58:33;28.90;;;16.47;;
16735;SDS011;17990;49.548;9.730;2023-03-03T12:01:05;26.87;;;15.97;;
16735;SDS011;17990;49.548;9.730;2023-03-03T12:03:38;27.10;;;15.70;;
16735;SDS011;17990;49.548;9.730;2023-03-03T12:06:12;26.67;;;16.07;;
16735;SDS011;17990;49.548;9.730;2023-03-03T12:11:41;35.20;;;16.13;;
16735;SDS011;17990;49.548;9.730;2023-03-03T12:14:14;27.30;;;15.93;;
16735;SDS011;17990;49.548;9.730;2023-03-03T12:16:50;28.97;;;16.30;;
16735;SDS011;17990;49.548;9.730;2023-03-03T12:19:24;27.20;;;16.20;;
16735;SDS011;17990;49.548;9.730;2023-03-03T12:22:12;29.20;;;17.93;;
16735;SDS011;17990;49.548;9.730;2023-03-03T12:27:43;26.37;;;15.70;;
16735;SDS011;17990;49.548;9.730;2023-03-03T12:30:16;27.00;;;16.80;;
16735;SDS011;17990;49.548;9.730;2023-03-03T12:32:55;28.33;;;15.90;;
16735;SDS011;17990;49.548;9.730;2023-03-03T12:35:30;27.67;;;16.13;;
16735;SDS011;17990;49.548;9.730;2023-03-03T12:38:04;26.97;;;16.70;;
16735;SDS011;17990;49.548;9.730;2023-03-03T12:40:37;23.70;;;15.60;;
16735;SDS011;17990;49.548;9.730;2023-03-03T12:43:14;23.37;;;15.17;;
16735;SDS011;17990;49.548;9.730;2023-03-03T12:45:50;25.83;;;15.83;;
16735;SDS011;17990;49.548;9.730;2023-03-03T12:48:24;23.70;;;15.30;;
16735;SDS011;17990;49.548;9.730;2023-03-03T12:50:59;25.30;;;16.17;;
16735;SDS011;17990;49.548;9.730;2023-03-03T12:53:38;24.10;;;15.27;;
16735;SDS011;17990;49.548;9.730;2023-03-03T12:56:42;24.20;;;15.57;;
16735;SDS011;17990;49.548;9.730;2023-03-03T12:59:12;27.40;;;14.93;;
16735;SDS011;17990;49.548;9.730;2023-03-03T13:01:47;24.23;;;14.33;;
16735;SDS011;17990;49.548;9.730;2023-03-03T13:04:27;26.73;;;15.80;;
16735;SDS011;17990;49.548;9.730;2023-03-03T13:07:01;27.93;;;16.40;;
16735;SDS011;17990;49.548;9.730;2023-03-03T13:09:34;23.07;;;15.33;;
16735;SDS011;17990;49.548;9.730;2023-03-03T13:12:12;24.97;;;14.77;;
16735;SDS011;17990;49.548;9.730;2023-03-03T13:14:49;26.97;;;15.37;;
16735;SDS011;17990;49.548;9.730;2023-03-03T13:17:21;22.93;;;15.30;;
16735;SDS011;17990;49.548;9.730;2023-03-03T13:19:51;25.13;;;14.27;;
16735;SDS011;17990;49.548;9.730;2023-03-03T13:22:29;24.70;;;14.80;;
16735;SDS011;17990;49.548;9.730;2023-03-03T13:25:02;24.03;;;15.80;;
16735;SDS011;17990;49.548;9.730;2023-03-03T13:27:35;29.40;;;17.07;;
16735;SDS011;17990;49.548;9.730;2023-03-03T13:30:08;26.10;;;16.27;;
16735;SDS011;17990;49.548;9.730;2023-03-03T13:32:42;24.17;;;14.93;;
16735;SDS011;17990;49.548;9.730;2023-03-03T13:35:15;25.60;;;15.30;;
16735;SDS011;17990;49.548;9.730;2023-03-03T13:37:48;23.57;;;14.93;;
16735;SDS011;17990;49.548;9.730;2023-03-03T13:40:20;20.73;;;14.47;;
16735;SDS011;17990;49.548;9.730;2023-03-03T13:42:49;24.27;;;16.03;;
16735;SDS011;17990;49.548;9.730;2023-03-03T13:45:21;27.17;;;15.10;;
16735;SDS011;17990;49.548;9.730;2023-03-03T13:47:52;25.53;;;15.03;;
16735;SDS011;17990;49.548;9.730;2023-03-03T13:50:26;24.77;;;15.30;;
16735;SDS011;17990;49.548;9.730;2023-03-03T13:53:00;27.20;;;16.00;;
16735;SDS011;17990;49.548;9.730;2023-03-03T13:55:36;22.43;;;14.83;;
16735;SDS011;17990;49.548;9.730;2023-03-03T13:58:09;25.23;;;14.37;;
16735;SDS011;17990;49.548;9.730;2023-03-03T14:00:49;23.70;;;14.83;;
16735;SDS011;17990;49.548;9.730;2023-03-03T14:06:27;22.73;;;15.30;;
16735;SDS011;17990;49.548;9.730;2023-03-03T14:11:58;24.20;;;15.63;;
16735;SDS011;17990;49.548;9.730;2023-03-03T14:14:32;28.47;;;15.37;;
16735;SDS011;17990;49.548;9.730;2023-03-03T14:17:07;21.73;;;13.87;;
16735;SDS011;17990;49.548;9.730;2023-03-03T14:19:41;23.03;;;14.57;;
16735;SDS011;17990;49.548;9.730;2023-03-03T14:22:14;21.87;;;14.17;;
16735;SDS011;17990;49.548;9.730;2023-03-03T14:24:55;21.77;;;14.93;;
16735;SDS011;17990;49.548;9.730;2023-03-03T14:27:32;24.80;;;14.87;;
16735;SDS011;17990;49.548;9.730;2023-03-03T14:33:00;26.07;;;15.13;;
16735;SDS011;17990;49.548;9.730;2023-03-03T14:35:34;24.57;;;15.07;;
16735;SDS011;17990;49.548;9.730;2023-03-03T14:38:03;28.07;;;16.90;;
16735;SDS011;17990;49.548;9.730;2023-03-03T14:40:34;25.73;;;15.93;;
16735;SDS011;17990;49.548;9.730;2023-03-03T14:43:11;26.90;;;14.83;;
16735;SDS011;17990;49.548;9.730;2023-03-03T14:45:46;25.10;;;14.53;;
16735;SDS011;17990;49.548;9.730;2023-03-03T14:48:14;22.87;;;14.43;;
16735;SDS011;17990;49.548;9.730;2023-03-03T14:50:45;22.83;;;14.20;;
16735;SDS011;17990;49.548;9.730;2023-03-03T14:53:19;20.93;;;13.47;;
16735;SDS011;17990;49.548;9.730;2023-03-03T14:55:48;21.27;;;13.57;;
16735;SDS011;17990;49.548;9.730;2023-03-03T14:58:25;20.97;;;13.43;;
16735;SDS011;17990;49.548;9.730;2023-03-03T15:01:07;21.43;;;14.27;;
16735;SDS011;17990;49.548;9.730;2023-03-03T15:03:43;22.83;;;13.70;;
16735;SDS011;17990;49.548;9.730;2023-03-03T15:06:25;22.67;;;14.30;;
16735;SDS011;17990;49.548;9.730;2023-03-03T15:08:55;24.03;;;14.10;;
16735;SDS011;17990;49.548;9.730;2023-03-03T15:11:25;20.07;;;13.60;;
16735;SDS011;17990;49.548;9.730;2023-03-03T15:13:55;22.70;;;13.73;;
16735;SDS011;17990;49.548;9.730;2023-03-03T15:16:35;22.87;;;13.80;;
16735;SDS011;17990;49.548;9.730;2023-03-03T15:19:09;20.20;;;12.57;;
16735;SDS011;17990;49.548;9.730;2023-03-03T15:21:58;20.33;;;12.93;;
16735;SDS011;17990;49.548;9.730;2023-03-03T15:24:30;21.17;;;13.27;;